KAKO

Colorado Plains Regional Airport

Akron, Colorado, USA
METAR KAKO 201853Z AUTO 00000KT 10SM CLR 18/M03 A3039 RMK AO2 SLP269 T01781033
Observed Flight Rules
Oct-20 @ 18:53 UTC (52 minutes ago) Visual Flight Rules
Visibility Clouds
10 miles
  • Clear skies
Temperatures Readings
Current 18°C / 64°F
Dewpoint -3°C / 27°F
Humidity 24%
Altimeter 30.39" Hg
Pressure 1026.9 hPa
Elevation 1421
METAR KAKO 201853Z AUTO 00000KT 10SM CLR 18/M03 A3039 RMK AO2 SLP269 T01781033
Observed Flight Rules
Oct-20 @ 18:53 UTC
(52 minutes ago)
VFR
Clouds
  • Clear skies
Temperature Dewpoint
18°C / 64°F -3°C / 27°F
Humidity Altimeter Pressure
24% 30.39" Hg 1026.9 hPa